Portada
METAR-TAF:

METAR-TAF

Aeropuertos :

Base Aérea de Getafe

Madrid-Getafe, España

latitud: 40-18N, longitud: 003-43W, altitud: 620 m

Observación

El informe se hizo hace 35 minutos, a las 18:30 UTC
Viento 1 kt del noroeste
Temperatura 9°C
Humedad 81%
Presión 1019 hPa
Visibilidad 10 km o más
sin nubes por debajo de 1500 m y sin presencia de cumulonimbus.

METAR: LEGT 291830Z 32001KT CAVOK 09/06 Q1019

Hora: 20:05 (19:05 UTC)

Pronóstico

El informe se hizo hace 2 horas y 5 minutos, a las 17:00 UTC
Pronóstico válido del 29 a las 18 UTC al 30 a las 18 UTC
Viento 4 kt del noreste
Visibilidad 10 km o más
sin nubes por debajo de 1500 m y sin presencia de cumulonimbus.
Probabilidad 30% :
Temporalmente
del 30 a las 04 UTC al 30 a las 09 UTC
Visibilidad: 2000 m
Cielo nuboso a una altura de 600 ft
neblina

TAF: LEGT 291700Z 2918/3018 04004KT CAVOK TX15/3015Z TN04/3006Z PROB30 TEMPO 3004/3009 2000 BR BKN006

Observaciones y pronósticos meteorológicos de más de 4000 aeropuertos (mensajes METAR y TAF).

Los puntos amarillos y rojos representan las estaciones disponibles.

Ponga el ratón en el punto deseado para ver el nombre de la estación.

Haga clic para ver las observaciones y los pronósticos meteorológicos.

Para cambiar el mapa : haga clic en los botones verdes con una cruz de color negro para hacer un zoom, en el botón verde con un guión para alejar o en las flechas verdes para mapas adyacentes.


METAR-TAF: